Hlavní strana
METAR-TAF:

METAR-TAF

Letiště :

Columbus, Ohio, Spojené státy americké

zeměpisná šířka: 39-59-42N, zeměpisná délka: 082-52-35W, výška: 248 m

Aktuální stav počasí

Zpráva byla vytvořena před 32 minutami, v 02:51 UTC
Severozápadní vítr 8 kt
Teplota -14°C
Vlhkost vzduchu 55%
Tlak 1026 hPa
Viditelnost: 16.1 km
Jasno

METAR: KCMH 210251Z 31008KT 10SM CLR M14/M21 A3031 RMK AO2 SLP281 T11441206 51018

Čas: 22:23 (03:23 UTC)

Předpověď počasí

Zpráva byla vytvořena před 3 hodinami a 52 minutami, v 23:31 UTC
Předpověď platná od 21 v 00 UTC do 21 v 24 UTC
Severozápadní vítr 8 kt
Viditelnost: 10 km
Jasno
Od 21 v 1300 UTC
Severoseverozápadní vítr 4 kt
Viditelnost: 10 km
Polojasno ve výšce 25000 ft

TAF: KCMH 202331Z 2100/2124 32008KT P6SM SKC FM211300 34004KT P6SM SCT250

Stav a předpovědi počasí z více než 4 000 letišť (zprávy METAR a TAF).

Červené a žluté tečky na mapě představují dostupné meteorologické stanice.

Když kurzor umístíte na tečku, zobrazí se název stanice.

Pak kliknutím zobrazíte stav a předpověď počasí.

Chcete-li změnit mapu, kliknutím na zelené tlačítko se znaménkem +mapu přiblížíte, kliknutím na zelené tlačítko se znaménkem – mapu oddálíte a kliknutím na zelené šipky přejdete na sousední mapy.


METAR-TAF: